sensor_id;sensor_type;location;lat;lon;timestamp;P1;durP1;ratioP1;P2;durP2;ratioP2
28335;SDS011;15592;53.656;7.276;2022-08-05T00:00:11;4.22;;;3.33;;
28335;SDS011;15592;53.656;7.276;2022-08-05T00:02:37;5.80;;;3.40;;
28335;SDS011;15592;53.656;7.276;2022-08-05T00:05:03;4.05;;;2.83;;
28335;SDS011;15592;53.656;7.276;2022-08-05T00:07:29;5.28;;;2.80;;
28335;SDS011;15592;53.656;7.276;2022-08-05T00:09:54;4.35;;;2.90;;
28335;SDS011;15592;53.656;7.276;2022-08-05T00:12:20;8.40;;;3.17;;
28335;SDS011;15592;53.656;7.276;2022-08-05T00:14:45;5.78;;;3.00;;
28335;SDS011;15592;53.656;7.276;2022-08-05T00:17:11;4.90;;;3.17;;
28335;SDS011;15592;53.656;7.276;2022-08-05T00:19:36;3.45;;;2.80;;
28335;SDS011;15592;53.656;7.276;2022-08-05T00:22:02;10.55;;;3.15;;
28335;SDS011;15592;53.656;7.276;2022-08-05T00:24:28;6.63;;;3.22;;
28335;SDS011;15592;53.656;7.276;2022-08-05T00:26:54;5.55;;;3.10;;
28335;SDS011;15592;53.656;7.276;2022-08-05T00:29:20;4.10;;;3.28;;
28335;SDS011;15592;53.656;7.276;2022-08-05T00:31:46;2.70;;;2.50;;
28335;SDS011;15592;53.656;7.276;2022-08-05T00:34:12;4.28;;;2.55;;
28335;SDS011;15592;53.656;7.276;2022-08-05T00:36:38;3.63;;;2.67;;
28335;SDS011;15592;53.656;7.276;2022-08-05T00:39:04;4.25;;;2.47;;
28335;SDS011;15592;53.656;7.276;2022-08-05T00:41:32;4.38;;;3.35;;
28335;SDS011;15592;53.656;7.276;2022-08-05T00:43:58;5.25;;;2.90;;
28335;SDS011;15592;53.656;7.276;2022-08-05T00:46:24;4.50;;;2.70;;
28335;SDS011;15592;53.656;7.276;2022-08-05T00:48:50;4.68;;;3.03;;
28335;SDS011;15592;53.656;7.276;2022-08-05T00:51:17;4.25;;;2.40;;
28335;SDS011;15592;53.656;7.276;2022-08-05T00:53:43;4.25;;;2.58;;
28335;SDS011;15592;53.656;7.276;2022-08-05T00:56:09;2.85;;;2.40;;
28335;SDS011;15592;53.656;7.276;2022-08-05T00:58:35;4.05;;;2.30;;
28335;SDS011;15592;53.656;7.276;2022-08-05T01:01:01;4.05;;;2.50;;
28335;SDS011;15592;53.656;7.276;2022-08-05T01:03:27;5.65;;;2.78;;
28335;SDS011;15592;53.656;7.276;2022-08-05T01:05:54;3.45;;;2.33;;
28335;SDS011;15592;53.656;7.276;2022-08-05T01:08:20;4.65;;;2.67;;
28335;SDS011;15592;53.656;7.276;2022-08-05T01:16:24;4.32;;;2.47;;
28335;SDS011;15592;53.656;7.276;2022-08-05T01:18:53;4.47;;;2.20;;
28335;SDS011;15592;53.656;7.276;2022-08-05T01:29:50;7.53;;;2.58;;
28335;SDS011;15592;53.656;7.276;2022-08-05T01:32:21;4.32;;;2.50;;
28335;SDS011;15592;53.656;7.276;2022-08-05T01:34:50;5.00;;;2.53;;
28335;SDS011;15592;53.656;7.276;2022-08-05T01:37:21;7.55;;;2.72;;
28335;SDS011;15592;53.656;7.276;2022-08-05T01:39:56;6.00;;;2.63;;
28335;SDS011;15592;53.656;7.276;2022-08-05T01:42:22;5.75;;;3.15;;
28335;SDS011;15592;53.656;7.276;2022-08-05T01:44:50;6.55;;;2.50;;
28335;SDS011;15592;53.656;7.276;2022-08-05T01:47:19;5.03;;;2.40;;
28335;SDS011;15592;53.656;7.276;2022-08-05T01:49:47;4.25;;;2.80;;
28335;SDS011;15592;53.656;7.276;2022-08-05T01:52:16;3.83;;;2.60;;
28335;SDS011;15592;53.656;7.276;2022-08-05T01:54:48;5.50;;;2.70;;
28335;SDS011;15592;53.656;7.276;2022-08-05T01:57:19;3.35;;;2.50;;
28335;SDS011;15592;53.656;7.276;2022-08-05T01:59:51;4.15;;;2.38;;
28335;SDS011;15592;53.656;7.276;2022-08-05T02:02:22;3.92;;;2.55;;
28335;SDS011;15592;53.656;7.276;2022-08-05T02:04:48;4.90;;;2.50;;
28335;SDS011;15592;53.656;7.276;2022-08-05T02:07:16;2.72;;;1.98;;
28335;SDS011;15592;53.656;7.276;2022-08-05T02:09:42;6.78;;;2.40;;
28335;SDS011;15592;53.656;7.276;2022-08-05T02:12:17;6.10;;;2.20;;
28335;SDS011;15592;53.656;7.276;2022-08-05T02:14:52;4.30;;;2.20;;
28335;SDS011;15592;53.656;7.276;2022-08-05T02:17:33;6.05;;;2.65;;
28335;SDS011;15592;53.656;7.276;2022-08-05T02:20:03;4.07;;;2.58;;
28335;SDS011;15592;53.656;7.276;2022-08-05T02:22:35;5.60;;;2.80;;
28335;SDS011;15592;53.656;7.276;2022-08-05T02:25:13;4.50;;;2.33;;
28335;SDS011;15592;53.656;7.276;2022-08-05T02:27:42;8.00;;;2.40;;
28335;SDS011;15592;53.656;7.276;2022-08-05T02:30:13;4.88;;;1.98;;
28335;SDS011;15592;53.656;7.276;2022-08-05T02:32:40;4.63;;;2.10;;
28335;SDS011;15592;53.656;7.276;2022-08-05T02:35:12;4.70;;;2.33;;
28335;SDS011;15592;53.656;7.276;2022-08-05T02:37:43;4.50;;;2.28;;
28335;SDS011;15592;53.656;7.276;2022-08-05T02:40:10;5.38;;;2.13;;
28335;SDS011;15592;53.656;7.276;2022-08-05T02:42:36;4.45;;;2.17;;
28335;SDS011;15592;53.656;7.276;2022-08-05T02:45:03;4.25;;;2.15;;
28335;SDS011;15592;53.656;7.276;2022-08-05T02:47:31;3.13;;;1.83;;
28335;SDS011;15592;53.656;7.276;2022-08-05T02:50:00;5.15;;;1.83;;
28335;SDS011;15592;53.656;7.276;2022-08-05T02:52:28;3.97;;;1.83;;
28335;SDS011;15592;53.656;7.276;2022-08-05T02:54:55;4.20;;;1.65;;
28335;SDS011;15592;53.656;7.276;2022-08-05T02:57:21;3.58;;;1.83;;
28335;SDS011;15592;53.656;7.276;2022-08-05T02:59:48;2.65;;;1.60;;
28335;SDS011;15592;53.656;7.276;2022-08-05T03:02:16;2.47;;;1.48;;
28335;SDS011;15592;53.656;7.276;2022-08-05T03:04:44;2.95;;;1.40;;
28335;SDS011;15592;53.656;7.276;2022-08-05T03:07:11;2.75;;;1.63;;
28335;SDS011;15592;53.656;7.276;2022-08-05T03:09:37;3.42;;;1.42;;
28335;SDS011;15592;53.656;7.276;2022-08-05T03:12:06;4.63;;;1.60;;
28335;SDS011;15592;53.656;7.276;2022-08-05T03:14:32;4.68;;;1.75;;
28335;SDS011;15592;53.656;7.276;2022-08-05T03:16:58;2.20;;;1.48;;
28335;SDS011;15592;53.656;7.276;2022-08-05T03:19:24;2.78;;;1.67;;
28335;SDS011;15592;53.656;7.276;2022-08-05T03:21:50;7.63;;;1.90;;
28335;SDS011;15592;53.656;7.276;2022-08-05T03:24:16;3.50;;;1.67;;
28335;SDS011;15592;53.656;7.276;2022-08-05T03:26:44;6.60;;;1.92;;
28335;SDS011;15592;53.656;7.276;2022-08-05T03:29:11;6.95;;;2.03;;
28335;SDS011;15592;53.656;7.276;2022-08-05T03:31:37;5.03;;;1.40;;
28335;SDS011;15592;53.656;7.276;2022-08-05T03:34:03;6.88;;;1.75;;
28335;SDS011;15592;53.656;7.276;2022-08-05T03:36:29;5.18;;;1.73;;
28335;SDS011;15592;53.656;7.276;2022-08-05T03:38:55;2.92;;;1.80;;
28335;SDS011;15592;53.656;7.276;2022-08-05T03:41:21;3.70;;;1.52;;
28335;SDS011;15592;53.656;7.276;2022-08-05T03:43:47;3.88;;;1.75;;
28335;SDS011;15592;53.656;7.276;2022-08-05T03:46:13;3.75;;;1.70;;
28335;SDS011;15592;53.656;7.276;2022-08-05T03:48:38;6.65;;;1.85;;
28335;SDS011;15592;53.656;7.276;2022-08-05T03:51:18;7.45;;;2.20;;
28335;SDS011;15592;53.656;7.276;2022-08-05T03:53:54;2.05;;;1.50;;
28335;SDS011;15592;53.656;7.276;2022-08-05T03:56:25;3.72;;;1.60;;
28335;SDS011;15592;53.656;7.276;2022-08-05T03:58:56;5.80;;;2.00;;
28335;SDS011;15592;53.656;7.276;2022-08-05T04:01:26;7.00;;;1.63;;
28335;SDS011;15592;53.656;7.276;2022-08-05T04:03:54;7.82;;;1.65;;
28335;SDS011;15592;53.656;7.276;2022-08-05T04:06:22;4.03;;;1.35;;
28335;SDS011;15592;53.656;7.276;2022-08-05T04:08:48;6.47;;;1.50;;
28335;SDS011;15592;53.656;7.276;2022-08-05T04:11:14;4.35;;;1.35;;
28335;SDS011;15592;53.656;7.276;2022-08-05T04:13:40;7.10;;;1.70;;
28335;SDS011;15592;53.656;7.276;2022-08-05T04:16:07;6.28;;;1.70;;
28335;SDS011;15592;53.656;7.276;2022-08-05T04:18:33;2.55;;;1.50;;
28335;SDS011;15592;53.656;7.276;2022-08-05T04:20:59;2.95;;;1.60;;
28335;SDS011;15592;53.656;7.276;2022-08-05T04:23:26;3.20;;;1.38;;
28335;SDS011;15592;53.656;7.276;2022-08-05T04:25:53;2.78;;;1.50;;
28335;SDS011;15592;53.656;7.276;2022-08-05T04:28:19;3.00;;;1.30;;
28335;SDS011;15592;53.656;7.276;2022-08-05T04:30:46;3.20;;;1.55;;
28335;SDS011;15592;53.656;7.276;2022-08-05T04:33:12;4.85;;;1.45;;
28335;SDS011;15592;53.656;7.276;2022-08-05T04:35:39;3.65;;;1.60;;
28335;SDS011;15592;53.656;7.276;2022-08-05T04:38:05;2.70;;;1.33;;
28335;SDS011;15592;53.656;7.276;2022-08-05T04:40:32;4.00;;;1.50;;
28335;SDS011;15592;53.656;7.276;2022-08-05T04:43:01;2.67;;;1.42;;
28335;SDS011;15592;53.656;7.276;2022-08-05T04:45:28;3.63;;;1.65;;
28335;SDS011;15592;53.656;7.276;2022-08-05T04:47:53;3.15;;;1.60;;
28335;SDS011;15592;53.656;7.276;2022-08-05T04:50:26;2.80;;;1.50;;
28335;SDS011;15592;53.656;7.276;2022-08-05T04:52:52;2.45;;;1.52;;
28335;SDS011;15592;53.656;7.276;2022-08-05T04:55:17;2.33;;;1.35;;
28335;SDS011;15592;53.656;7.276;2022-08-05T04:57:43;1.35;;;1.25;;
28335;SDS011;15592;53.656;7.276;2022-08-05T05:00:10;3.08;;;1.30;;
28335;SDS011;15592;53.656;7.276;2022-08-05T05:02:36;2.45;;;1.30;;
28335;SDS011;15592;53.656;7.276;2022-08-05T05:05:02;2.33;;;1.30;;
28335;SDS011;15592;53.656;7.276;2022-08-05T05:07:29;3.00;;;1.40;;
28335;SDS011;15592;53.656;7.276;2022-08-05T05:09:55;2.88;;;1.30;;
28335;SDS011;15592;53.656;7.276;2022-08-05T05:12:21;2.10;;;1.30;;
28335;SDS011;15592;53.656;7.276;2022-08-05T05:14:46;3.53;;;1.58;;
28335;SDS011;15592;53.656;7.276;2022-08-05T05:17:12;4.05;;;1.27;;
28335;SDS011;15592;53.656;7.276;2022-08-05T05:19:37;1.73;;;1.30;;
28335;SDS011;15592;53.656;7.276;2022-08-05T05:22:05;3.10;;;1.33;;
28335;SDS011;15592;53.656;7.276;2022-08-05T05:24:31;2.42;;;1.30;;
28335;SDS011;15592;53.656;7.276;2022-08-05T05:26:56;2.22;;;1.10;;
28335;SDS011;15592;53.656;7.276;2022-08-05T05:29:22;3.97;;;1.38;;
28335;SDS011;15592;53.656;7.276;2022-08-05T05:31:48;3.83;;;1.35;;
28335;SDS011;15592;53.656;7.276;2022-08-05T05:34:13;5.10;;;1.73;;
28335;SDS011;15592;53.656;7.276;2022-08-05T05:36:39;3.25;;;1.30;;
28335;SDS011;15592;53.656;7.276;2022-08-05T05:39:05;4.88;;;1.60;;
28335;SDS011;15592;53.656;7.276;2022-08-05T05:41:30;3.08;;;1.58;;
28335;SDS011;15592;53.656;7.276;2022-08-05T05:43:56;6.10;;;1.40;;
28335;SDS011;15592;53.656;7.276;2022-08-05T05:46:22;5.25;;;1.33;;
28335;SDS011;15592;53.656;7.276;2022-08-05T05:48:48;4.07;;;1.40;;
28335;SDS011;15592;53.656;7.276;2022-08-05T05:51:20;4.30;;;1.60;;
28335;SDS011;15592;53.656;7.276;2022-08-05T05:53:47;3.97;;;1.52;;
28335;SDS011;15592;53.656;7.276;2022-08-05T05:56:12;3.35;;;1.27;;
28335;SDS011;15592;53.656;7.276;2022-08-05T05:58:38;6.32;;;1.50;;
28335;SDS011;15592;53.656;7.276;2022-08-05T06:01:03;4.22;;;1.33;;
28335;SDS011;15592;53.656;7.276;2022-08-05T06:03:29;5.43;;;1.48;;
28335;SDS011;15592;53.656;7.276;2022-08-05T06:05:55;5.85;;;1.45;;
28335;SDS011;15592;53.656;7.276;2022-08-05T06:08:20;3.13;;;1.50;;
28335;SDS011;15592;53.656;7.276;2022-08-05T06:10:46;6.05;;;1.50;;
28335;SDS011;15592;53.656;7.276;2022-08-05T06:13:11;4.60;;;1.60;;
28335;SDS011;15592;53.656;7.276;2022-08-05T06:15:37;5.90;;;1.45;;
28335;SDS011;15592;53.656;7.276;2022-08-05T06:18:03;3.13;;;1.42;;
28335;SDS011;15592;53.656;7.276;2022-08-05T06:20:28;3.95;;;1.38;;
28335;SDS011;15592;53.656;7.276;2022-08-05T06:22:54;6.35;;;1.50;;
28335;SDS011;15592;53.656;7.276;2022-08-05T06:25:19;3.40;;;1.33;;
28335;SDS011;15592;53.656;7.276;2022-08-05T06:27:45;2.08;;;1.00;;
28335;SDS011;15592;53.656;7.276;2022-08-05T06:30:11;3.38;;;1.40;;
28335;SDS011;15592;53.656;7.276;2022-08-05T06:32:40;4.25;;;1.60;;
28335;SDS011;15592;53.656;7.276;2022-08-05T06:35:07;3.33;;;1.42;;
28335;SDS011;15592;53.656;7.276;2022-08-05T06:37:33;4.13;;;1.40;;
28335;SDS011;15592;53.656;7.276;2022-08-05T06:39:58;5.63;;;1.63;;
28335;SDS011;15592;53.656;7.276;2022-08-05T06:42:24;4.30;;;1.50;;
28335;SDS011;15592;53.656;7.276;2022-08-05T06:44:50;2.72;;;1.33;;
28335;SDS011;15592;53.656;7.276;2022-08-05T06:47:15;3.13;;;1.60;;
28335;SDS011;15592;53.656;7.276;2022-08-05T06:49:41;11.02;;;2.17;;
28335;SDS011;15592;53.656;7.276;2022-08-05T06:52:06;4.50;;;1.55;;
28335;SDS011;15592;53.656;7.276;2022-08-05T06:54:32;5.20;;;1.38;;
28335;SDS011;15592;53.656;7.276;2022-08-05T06:56:58;2.58;;;1.20;;
28335;SDS011;15592;53.656;7.276;2022-08-05T06:59:23;2.42;;;1.30;;
28335;SDS011;15592;53.656;7.276;2022-08-05T07:01:49;6.80;;;1.40;;
28335;SDS011;15592;53.656;7.276;2022-08-05T07:04:14;5.57;;;1.48;;
28335;SDS011;15592;53.656;7.276;2022-08-05T07:06:40;3.10;;;1.50;;
28335;SDS011;15592;53.656;7.276;2022-08-05T07:09:06;5.55;;;1.42;;
28335;SDS011;15592;53.656;7.276;2022-08-05T07:11:34;6.63;;;1.38;;
28335;SDS011;15592;53.656;7.276;2022-08-05T07:14:00;3.25;;;1.40;;
28335;SDS011;15592;53.656;7.276;2022-08-05T07:16:44;4.00;;;1.63;;
28335;SDS011;15592;53.656;7.276;2022-08-05T07:19:16;2.03;;;1.17;;
28335;SDS011;15592;53.656;7.276;2022-08-05T07:21:44;2.78;;;1.50;;
28335;SDS011;15592;53.656;7.276;2022-08-05T07:24:10;1.55;;;1.10;;
28335;SDS011;15592;53.656;7.276;2022-08-05T07:26:36;3.92;;;1.50;;
28335;SDS011;15592;53.656;7.276;2022-08-05T07:29:02;2.95;;;1.25;;
28335;SDS011;15592;53.656;7.276;2022-08-05T07:31:28;2.55;;;1.20;;
28335;SDS011;15592;53.656;7.276;2022-08-05T07:33:54;2.70;;;1.20;;
28335;SDS011;15592;53.656;7.276;2022-08-05T07:36:19;1.73;;;0.90;;
28335;SDS011;15592;53.656;7.276;2022-08-05T07:38:45;1.50;;;1.00;;
28335;SDS011;15592;53.656;7.276;2022-08-05T07:41:13;2.88;;;1.10;;
28335;SDS011;15592;53.656;7.276;2022-08-05T07:43:41;1.52;;;1.10;;
28335;SDS011;15592;53.656;7.276;2022-08-05T07:46:07;5.30;;;1.65;;
28335;SDS011;15592;53.656;7.276;2022-08-05T07:48:33;3.47;;;1.30;;
28335;SDS011;15592;53.656;7.276;2022-08-05T07:50:58;4.03;;;1.48;;
28335;SDS011;15592;53.656;7.276;2022-08-05T07:53:24;2.50;;;1.20;;
28335;SDS011;15592;53.656;7.276;2022-08-05T07:55:50;4.88;;;1.50;;
28335;SDS011;15592;53.656;7.276;2022-08-05T07:58:15;2.65;;;1.48;;
28335;SDS011;15592;53.656;7.276;2022-08-05T08:00:41;2.40;;;1.20;;
28335;SDS011;15592;53.656;7.276;2022-08-05T08:03:11;1.92;;;1.20;;
28335;SDS011;15592;53.656;7.276;2022-08-05T08:05:37;2.45;;;1.40;;
28335;SDS011;15592;53.656;7.276;2022-08-05T08:08:08;1.63;;;1.10;;
28335;SDS011;15592;53.656;7.276;2022-08-05T08:10:38;1.95;;;0.93;;
28335;SDS011;15592;53.656;7.276;2022-08-05T08:13:04;1.77;;;0.95;;
28335;SDS011;15592;53.656;7.276;2022-08-05T08:15:31;3.05;;;1.13;;
28335;SDS011;15592;53.656;7.276;2022-08-05T08:17:57;2.13;;;1.23;;
28335;SDS011;15592;53.656;7.276;2022-08-05T08:20:23;2.67;;;1.13;;
28335;SDS011;15592;53.656;7.276;2022-08-05T08:22:53;1.63;;;1.00;;
28335;SDS011;15592;53.656;7.276;2022-08-05T08:25:21;3.45;;;1.15;;
28335;SDS011;15592;53.656;7.276;2022-08-05T08:27:47;3.92;;;1.45;;
28335;SDS011;15592;53.656;7.276;2022-08-05T08:30:13;1.73;;;1.10;;
28335;SDS011;15592;53.656;7.276;2022-08-05T08:32:40;3.38;;;1.10;;
28335;SDS011;15592;53.656;7.276;2022-08-05T08:35:06;4.00;;;1.30;;
28335;SDS011;15592;53.656;7.276;2022-08-05T08:37:32;1.77;;;0.80;;
28335;SDS011;15592;53.656;7.276;2022-08-05T08:39:58;1.50;;;0.80;;
28335;SDS011;15592;53.656;7.276;2022-08-05T08:42:23;1.55;;;0.90;;
28335;SDS011;15592;53.656;7.276;2022-08-05T08:44:51;2.13;;;1.10;;
28335;SDS011;15592;53.656;7.276;2022-08-05T08:47:21;3.00;;;1.20;;
28335;SDS011;15592;53.656;7.276;2022-08-05T08:49:51;2.78;;;1.23;;
28335;SDS011;15592;53.656;7.276;2022-08-05T08:52:22;2.92;;;1.30;;
28335;SDS011;15592;53.656;7.276;2022-08-05T08:54:52;2.33;;;1.10;;
28335;SDS011;15592;53.656;7.276;2022-08-05T08:57:18;1.83;;;1.30;;
28335;SDS011;15592;53.656;7.276;2022-08-05T08:59:44;2.85;;;1.15;;
28335;SDS011;15592;53.656;7.276;2022-08-05T09:02:10;1.52;;;0.90;;
28335;SDS011;15592;53.656;7.276;2022-08-05T09:04:37;1.92;;;0.85;;
28335;SDS011;15592;53.656;7.276;2022-08-05T09:07:06;1.55;;;0.90;;
28335;SDS011;15592;53.656;7.276;2022-08-05T09:09:33;5.53;;;1.30;;
28335;SDS011;15592;53.656;7.276;2022-08-05T09:12:00;1.90;;;1.00;;
28335;SDS011;15592;53.656;7.276;2022-08-05T09:14:33;3.38;;;1.23;;
28335;SDS011;15592;53.656;7.276;2022-08-05T09:17:00;2.45;;;1.20;;
28335;SDS011;15592;53.656;7.276;2022-08-05T09:19:26;1.23;;;1.00;;
28335;SDS011;15592;53.656;7.276;2022-08-05T09:21:52;2.88;;;1.30;;
28335;SDS011;15592;53.656;7.276;2022-08-05T09:24:18;2.92;;;1.25;;
28335;SDS011;15592;53.656;7.276;2022-08-05T09:26:51;2.45;;;1.02;;
28335;SDS011;15592;53.656;7.276;2022-08-05T09:29:20;2.97;;;1.10;;
28335;SDS011;15592;53.656;7.276;2022-08-05T09:32:04;2.50;;;0.90;;
28335;SDS011;15592;53.656;7.276;2022-08-05T09:34:46;1.73;;;1.00;;
28335;SDS011;15592;53.656;7.276;2022-08-05T09:37:32;2.97;;;1.20;;
28335;SDS011;15592;53.656;7.276;2022-08-05T09:39:58;2.22;;;1.10;;
28335;SDS011;15592;53.656;7.276;2022-08-05T09:42:24;1.98;;;0.93;;
28335;SDS011;15592;53.656;7.276;2022-08-05T09:44:50;2.28;;;1.00;;
28335;SDS011;15592;53.656;7.276;2022-08-05T09:49:50;1.08;;;0.90;;
28335;SDS011;15592;53.656;7.276;2022-08-05T09:55:06;1.27;;;1.00;;
28335;SDS011;15592;53.656;7.276;2022-08-05T09:57:37;1.23;;;0.75;;
28335;SDS011;15592;53.656;7.276;2022-08-05T10:02:46;1.48;;;0.80;;
28335;SDS011;15592;53.656;7.276;2022-08-05T10:05:15;1.02;;;0.82;;
28335;SDS011;15592;53.656;7.276;2022-08-05T10:07:47;1.05;;;0.90;;
28335;SDS011;15592;53.656;7.276;2022-08-05T10:10:13;2.03;;;1.00;;
28335;SDS011;15592;53.656;7.276;2022-08-05T10:12:44;1.88;;;0.80;;
28335;SDS011;15592;53.656;7.276;2022-08-05T10:15:16;3.10;;;1.10;;
28335;SDS011;15592;53.656;7.276;2022-08-05T10:20:30;1.67;;;0.82;;
28335;SDS011;15592;53.656;7.276;2022-08-05T10:22:56;2.30;;;0.88;;
28335;SDS011;15592;53.656;7.276;2022-08-05T10:25:22;0.82;;;0.77;;
28335;SDS011;15592;53.656;7.276;2022-08-05T10:27:47;1.45;;;1.00;;
28335;SDS011;15592;53.656;7.276;2022-08-05T10:30:14;1.33;;;0.80;;
28335;SDS011;15592;53.656;7.276;2022-08-05T10:32:42;2.17;;;0.88;;
28335;SDS011;15592;53.656;7.276;2022-08-05T10:35:08;3.03;;;1.10;;
28335;SDS011;15592;53.656;7.276;2022-08-05T10:37:34;3.25;;;1.20;;
28335;SDS011;15592;53.656;7.276;2022-08-05T10:40:00;1.70;;;0.90;;
28335;SDS011;15592;53.656;7.276;2022-08-05T10:42:31;2.15;;;1.10;;
28335;SDS011;15592;53.656;7.276;2022-08-05T10:45:01;1.20;;;1.00;;
28335;SDS011;15592;53.656;7.276;2022-08-05T10:47:32;3.05;;;0.90;;
28335;SDS011;15592;53.656;7.276;2022-08-05T10:50:07;3.97;;;1.30;;
28335;SDS011;15592;53.656;7.276;2022-08-05T10:52:44;2.53;;;0.95;;
28335;SDS011;15592;53.656;7.276;2022-08-05T10:55:16;3.10;;;1.20;;
28335;SDS011;15592;53.656;7.276;2022-08-05T10:57:43;1.60;;;0.98;;
28335;SDS011;15592;53.656;7.276;2022-08-05T11:02:37;3.83;;;1.13;;
28335;SDS011;15592;53.656;7.276;2022-08-05T11:05:25;2.55;;;1.00;;
28335;SDS011;15592;53.656;7.276;2022-08-05T11:08:01;2.15;;;1.10;;
28335;SDS011;15592;53.656;7.276;2022-08-05T11:10:29;1.95;;;0.80;;
28335;SDS011;15592;53.656;7.276;2022-08-05T11:12:58;1.52;;;0.82;;
28335;SDS011;15592;53.656;7.276;2022-08-05T11:20:57;2.50;;;1.17;;
28335;SDS011;15592;53.656;7.276;2022-08-05T11:23:24;3.65;;;1.40;;
28335;SDS011;15592;53.656;7.276;2022-08-05T11:26:06;1.63;;;0.95;;
28335;SDS011;15592;53.656;7.276;2022-08-05T11:35:55;2.45;;;0.88;;
28335;SDS011;15592;53.656;7.276;2022-08-05T11:41:22;1.05;;;0.60;;
28335;SDS011;15592;53.656;7.276;2022-08-05T11:46:29;1.88;;;0.77;;
28335;SDS011;15592;53.656;7.276;2022-08-05T11:48:59;3.35;;;1.00;;
28335;SDS011;15592;53.656;7.276;2022-08-05T11:51:26;1.50;;;0.70;;
28335;SDS011;15592;53.656;7.276;2022-08-05T11:53:53;1.88;;;1.00;;
28335;SDS011;15592;53.656;7.276;2022-08-05T11:56:19;2.35;;;0.80;;
28335;SDS011;15592;53.656;7.276;2022-08-05T11:58:46;1.15;;;0.85;;
28335;SDS011;15592;53.656;7.276;2022-08-05T12:01:16;1.20;;;0.80;;
28335;SDS011;15592;53.656;7.276;2022-08-05T12:04:10;2.85;;;0.88;;
28335;SDS011;15592;53.656;7.276;2022-08-05T12:06:36;1.52;;;0.70;;
28335;SDS011;15592;53.656;7.276;2022-08-05T12:09:02;1.50;;;0.65;;
28335;SDS011;15592;53.656;7.276;2022-08-05T12:11:29;1.25;;;0.90;;
28335;SDS011;15592;53.656;7.276;2022-08-05T12:13:56;1.60;;;0.93;;
28335;SDS011;15592;53.656;7.276;2022-08-05T12:16:36;1.80;;;0.70;;
28335;SDS011;15592;53.656;7.276;2022-08-05T12:19:03;1.52;;;0.85;;
28335;SDS011;15592;53.656;7.276;2022-08-05T12:21:31;2.00;;;0.90;;
28335;SDS011;15592;53.656;7.276;2022-08-05T12:24:00;0.95;;;0.65;;
28335;SDS011;15592;53.656;7.276;2022-08-05T12:26:35;1.30;;;0.90;;
28335;SDS011;15592;53.656;7.276;2022-08-05T12:29:24;1.48;;;0.80;;
28335;SDS011;15592;53.656;7.276;2022-08-05T12:31:52;1.60;;;0.85;;
28335;SDS011;15592;53.656;7.276;2022-08-05T12:34:26;2.85;;;0.77;;
28335;SDS011;15592;53.656;7.276;2022-08-05T12:36:57;0.82;;;0.65;;
28335;SDS011;15592;53.656;7.276;2022-08-05T12:39:31;1.42;;;0.73;;
28335;SDS011;15592;53.656;7.276;2022-08-05T12:41:57;0.60;;;0.50;;
28335;SDS011;15592;53.656;7.276;2022-08-05T12:44:23;1.88;;;0.82;;
28335;SDS011;15592;53.656;7.276;2022-08-05T12:46:51;0.68;;;0.65;;
28335;SDS011;15592;53.656;7.276;2022-08-05T12:49:18;1.88;;;0.80;;
28335;SDS011;15592;53.656;7.276;2022-08-05T12:51:49;1.65;;;0.70;;
28335;SDS011;15592;53.656;7.276;2022-08-05T12:54:21;1.30;;;0.80;;
28335;SDS011;15592;53.656;7.276;2022-08-05T12:59:22;0.70;;;0.70;;
28335;SDS011;15592;53.656;7.276;2022-08-05T13:02:07;1.23;;;0.70;;
28335;SDS011;15592;53.656;7.276;2022-08-05T13:04:38;2.47;;;0.70;;
28335;SDS011;15592;53.656;7.276;2022-08-05T13:07:07;0.75;;;0.70;;
28335;SDS011;15592;53.656;7.276;2022-08-05T13:09:40;1.52;;;0.63;;
28335;SDS011;15592;53.656;7.276;2022-08-05T13:12:11;2.03;;;0.70;;
28335;SDS011;15592;53.656;7.276;2022-08-05T13:14:39;1.23;;;0.60;;
28335;SDS011;15592;53.656;7.276;2022-08-05T13:22:23;0.93;;;0.65;;
28335;SDS011;15592;53.656;7.276;2022-08-05T13:24:49;0.93;;;0.52;;
28335;SDS011;15592;53.656;7.276;2022-08-05T13:29:49;0.88;;;0.70;;
28335;SDS011;15592;53.656;7.276;2022-08-05T13:32:15;1.35;;;0.60;;
28335;SDS011;15592;53.656;7.276;2022-08-05T13:34:50;1.98;;;0.60;;
28335;SDS011;15592;53.656;7.276;2022-08-05T13:37:17;0.98;;;0.50;;
28335;SDS011;15592;53.656;7.276;2022-08-05T13:39:45;0.75;;;0.55;;
28335;SDS011;15592;53.656;7.276;2022-08-05T13:42:14;1.23;;;0.60;;
28335;SDS011;15592;53.656;7.276;2022-08-05T13:44:43;2.83;;;0.77;;
28335;SDS011;15592;53.656;7.276;2022-08-05T13:47:10;1.25;;;0.50;;
28335;SDS011;15592;53.656;7.276;2022-08-05T13:49:36;1.23;;;0.60;;
28335;SDS011;15592;53.656;7.276;2022-08-05T13:52:11;0.88;;;0.55;;
28335;SDS011;15592;53.656;7.276;2022-08-05T13:54:38;0.85;;;0.60;;
28335;SDS011;15592;53.656;7.276;2022-08-05T13:57:05;2.75;;;0.65;;
28335;SDS011;15592;53.656;7.276;2022-08-05T13:59:31;2.05;;;0.55;;
28335;SDS011;15592;53.656;7.276;2022-08-05T14:01:58;1.45;;;0.60;;
28335;SDS011;15592;53.656;7.276;2022-08-05T14:04:29;0.70;;;0.47;;
28335;SDS011;15592;53.656;7.276;2022-08-05T14:07:15;1.40;;;0.55;;
28335;SDS011;15592;53.656;7.276;2022-08-05T14:09:41;1.73;;;0.70;;
28335;SDS011;15592;53.656;7.276;2022-08-05T14:12:06;1.58;;;0.80;;
28335;SDS011;15592;53.656;7.276;2022-08-05T14:14:32;1.60;;;0.60;;
28335;SDS011;15592;53.656;7.276;2022-08-05T14:16:58;2.25;;;0.73;;
28335;SDS011;15592;53.656;7.276;2022-08-05T14:19:24;0.90;;;0.60;;
28335;SDS011;15592;53.656;7.276;2022-08-05T14:21:49;0.55;;;0.50;;
28335;SDS011;15592;53.656;7.276;2022-08-05T14:24:15;1.02;;;0.60;;
28335;SDS011;15592;53.656;7.276;2022-08-05T14:26:41;1.02;;;0.60;;
28335;SDS011;15592;53.656;7.276;2022-08-05T14:29:07;2.35;;;0.65;;
28335;SDS011;15592;53.656;7.276;2022-08-05T14:31:33;2.72;;;0.70;;
28335;SDS011;15592;53.656;7.276;2022-08-05T14:33:59;1.92;;;0.60;;
28335;SDS011;15592;53.656;7.276;2022-08-05T14:36:24;1.48;;;0.70;;
28335;SDS011;15592;53.656;7.276;2022-08-05T14:38:50;3.50;;;0.65;;
28335;SDS011;15592;53.656;7.276;2022-08-05T14:41:16;1.13;;;0.60;;
28335;SDS011;15592;53.656;7.276;2022-08-05T14:43:42;1.60;;;0.75;;
28335;SDS011;15592;53.656;7.276;2022-08-05T14:46:07;0.85;;;0.52;;
28335;SDS011;15592;53.656;7.276;2022-08-05T14:48:33;1.35;;;0.55;;
28335;SDS011;15592;53.656;7.276;2022-08-05T14:50:59;0.95;;;0.60;;
28335;SDS011;15592;53.656;7.276;2022-08-05T14:53:24;0.57;;;0.43;;
28335;SDS011;15592;53.656;7.276;2022-08-05T14:55:50;1.45;;;0.65;;
28335;SDS011;15592;53.656;7.276;2022-08-05T14:58:16;0.73;;;0.73;;
28335;SDS011;15592;53.656;7.276;2022-08-05T15:00:45;1.45;;;0.70;;
28335;SDS011;15592;53.656;7.276;2022-08-05T15:03:10;2.38;;;0.95;;
28335;SDS011;15592;53.656;7.276;2022-08-05T15:05:36;2.03;;;0.82;;
28335;SDS011;15592;53.656;7.276;2022-08-05T15:08:02;2.63;;;0.77;;
28335;SDS011;15592;53.656;7.276;2022-08-05T15:10:28;0.60;;;0.50;;
28335;SDS011;15592;53.656;7.276;2022-08-05T15:12:54;1.17;;;0.60;;
28335;SDS011;15592;53.656;7.276;2022-08-05T15:15:20;0.57;;;0.57;;
28335;SDS011;15592;53.656;7.276;2022-08-05T15:17:46;0.70;;;0.70;;
28335;SDS011;15592;53.656;7.276;2022-08-05T15:20:12;1.00;;;0.60;;
28335;SDS011;15592;53.656;7.276;2022-08-05T15:22:38;1.05;;;0.70;;
28335;SDS011;15592;53.656;7.276;2022-08-05T15:25:04;0.65;;;0.60;;
28335;SDS011;15592;53.656;7.276;2022-08-05T15:27:30;1.15;;;0.60;;
28335;SDS011;15592;53.656;7.276;2022-08-05T15:29:56;0.70;;;0.70;;
28335;SDS011;15592;53.656;7.276;2022-08-05T15:32:25;1.55;;;0.65;;
28335;SDS011;15592;53.656;7.276;2022-08-05T15:34:51;1.73;;;0.82;;
28335;SDS011;15592;53.656;7.276;2022-08-05T15:37:17;4.82;;;1.15;;
28335;SDS011;15592;53.656;7.276;2022-08-05T15:39:45;4.68;;;1.23;;
28335;SDS011;15592;53.656;7.276;2022-08-05T15:42:14;4.28;;;1.08;;
28335;SDS011;15592;53.656;7.276;2022-08-05T15:44:40;4.28;;;1.35;;
28335;SDS011;15592;53.656;7.276;2022-08-05T15:47:05;6.80;;;1.15;;